| time (UTC) | temp F | wind direction | speed knots | gust knots | rain 1hr in | rain 24hr in | rain mn in | humidity % | barometer mb |
| 20260502214112 | 57 | 101 | 4.3 | 4.3 | 0.00 | 0.00 | 0.00 | 58 | 1016.6 |
| 20260502213112 | 56 | 96 | 2.6 | 3.5 | 0.00 | 0.00 | 0.00 | 59 | 1016.6 |
| 20260502212113 | 56 | 101 | 4.3 | 5.2 | 0.00 | 0.00 | 0.00 | 61 | 1016.7 |
| 20260502210719 | 57 | 96 | 2.6 | 3.5 | 0.00 | 0.00 | 0.00 | 57 | 1016.8 |
| 20260502205720 | 58 | 96 | 3.5 | 4.3 | 0.00 | 0.00 | 0.00 | 56 | 1016.9 |
| 20260502204719 | 58 | 107 | 2.6 | 2.6 | 0.00 | 0.00 | 0.00 | 55 | 1016.9 |
| 20260502203720 | 59 | 98 | 3.5 | 3.5 | 0.00 | 0.00 | 0.00 | 55 | 1016.9 |
| 20260502202719 | 59 | 80 | 1.7 | 2.6 | 0.00 | 0.00 | 0.00 | 54 | 1016.8 |
| 20260502201716 | 59 | 92 | 0.9 | 2.6 | 0.00 | 0.00 | 0.00 | 54 | 1017.0 |
| 20260502200716 | 60 | 92 | 1.7 | 2.6 | 0.00 | 0.00 | 0.00 | 54 | 1016.9 |
| 20260502195716 | 60 | 101 | 1.7 | 3.5 | 0.00 | 0.00 | 0.00 | 53 | 1016.9 |
| 20260502194716 | 60 | 83 | 0.9 | 2.6 | 0.00 | 0.00 | 0.00 | 54 | 1017.0 |
| 20260502193717 | 61 | 84 | 1.7 | 2.6 | 0.00 | 0.00 | 0.00 | 54 | 1017.1 |
| 20260502192714 | 61 | 101 | 1.7 | 2.6 | 0.00 | 0.00 | 0.00 | 54 | 1017.1 |
| 20260502191713 | 62 | 101 | 1.7 | 2.6 | 0.00 | 0.00 | 0.00 | 54 | 1016.9 |
| 20260502190714 | 63 | 100 | 0.9 | 2.6 | 0.00 | 0.00 | 0.00 | 50 | 1016.9 |
| 20260502185713 | 64 | 93 | 1.7 | 2.6 | 0.00 | 0.00 | 0.00 | 49 | 1016.8 |
| 20260502184713 | 65 | 96 | 2.6 | 2.6 | 0.00 | 0.00 | 0.00 | 48 | 1016.7 |
| 20260502183711 | 66 | 62 | 1.7 | 1.7 | 0.00 | 0.00 | 0.00 | 48 | 1016.9 |
| 20260502182711 | 66 | 98 | 1.7 | 2.6 | 0.00 | 0.00 | 0.00 | 48 | 1016.8 |
| 20260502181710 | 68 | 96 | 2.6 | 3.5 | 0.00 | 0.00 | 0.00 | 45 | 1016.6 |
| 20260502180711 | 69 | 98 | 1.7 | 1.7 | 0.00 | 0.00 | 0.00 | 42 | 1016.8 |
| 20260502163703 | 77 | 101 | 1.7 | 3.5 | 0.00 | 0.00 | 0.00 | 35 | 1017.0 |
| 20260502162704 | 80 | 101 | 1.7 | 1.7 | 0.00 | 0.00 | 0.00 | 32 | 1017.0 |
| 20260502161704 | 80 | 97 | 0.9 | 1.7 | 0.00 | 0.00 | 0.00 | 33 | 1017.2 |
| 20260502160701 | 81 | 59 | 0.9 | 2.6 | 0.00 | 0.00 | 0.00 | 33 | 1017.1 |
| 20260502151657 | 83 | 71 | 0.9 | 2.6 | 0.00 | 0.00 | 0.00 | 32 | 1017.6 |
| 20260502150657 | 82 | 9 | 2.6 | 4.3 | 0.00 | 0.00 | 0.00 | 32 | 1017.6 |
| 20260502130649 | 79 | 32 | 1.7 | 2.6 | 0.00 | 0.00 | 0.00 | 35 | 1019.1 |
| 20260502123646 | 78 | 26 | 1.7 | 2.6 | 0.00 | 0.00 | 0.00 | 38 | 1019.6 |
| 20260502122646 | 73 | 21 | 0.9 | 2.6 | 0.00 | 0.00 | 0.00 | 42 | 1019.6 |
| 20260502121646 | 74 | 357 | 0.9 | 3.5 | 0.00 | 0.00 | 0.00 | 42 | 1019.7 |
| 20260502120646 | 74 | 40 | 1.7 | 1.7 | 0.00 | 0.00 | 0.00 | 43 | 1020.0 |
| 20260502115643 | 71 | 153 | 0.9 | 3.5 | 0.00 | 0.00 | 0.00 | 45 | 1020.2 |
| 20260502114644 | 71 | 307 | 0.9 | 4.3 | 0.00 | 0.00 | 0.00 | 44 | 1020.2 |
| 20260502113643 | 71 | 35 | 0.0 | 1.7 | 0.00 | 0.00 | 0.00 | 45 | 1020.4 |
| 20260502112643 | 72 | 338 | 0.9 | 2.6 | 0.00 | 0.00 | 0.00 | 43 | 1020.5 |
| 20260502111643 | 70 | 163 | 0.0 | 3.5 | 0.00 | 0.00 | 0.00 | 44 | 1020.6 |
| 20260502110640 | 71 | 336 | 1.7 | 3.5 | 0.00 | 0.00 | 0.00 | 42 | 1020.7 |
| 20260502105640 | 73 | 116 | 1.7 | 3.5 | 0.00 | 0.00 | 0.00 | 42 | 1020.9 |
| 20260502104640 | 72 | 45 | 0.0 | 2.6 | 0.00 | 0.00 | 0.00 | 44 | 1021.1 |
| 20260502103641 | 69 | 345 | 1.7 | 4.3 | 0.00 | 0.00 | 0.00 | 48 | 1021.4 |
| 20260502102640 | 68 | 5 | 0.9 | 1.7 | 0.00 | 0.00 | 0.00 | 50 | 1021.4 |
| 20260502101637 | 68 | 281 | 0.0 | 4.3 | 0.00 | 0.00 | 0.00 | 51 | 1021.4 |
| 20260502100637 | 68 | 338 | 1.7 | 2.6 | 0.00 | 0.00 | 0.00 | 50 | 1021.6 |
| 20260502090635 | 66 | 93 | 0.9 | 3.5 | 0.00 | 0.00 | 0.00 | 50 | 1022.3 |
| 20260502070627 | 62 | 351 | 0.0 | 1.7 | 0.00 | 0.00 | 0.00 | 52 | 1022.4 |
| 20260502065624 | 62 | 117 | 1.7 | 1.7 | 0.00 | 0.00 | 0.00 | 52 | 1022.5 |
| 20260502064624 | 61 | 143 | 1.7 | 2.6 | 0.00 | 0.00 | 0.00 | 53 | 1022.5 |
| 20260502063624 | 60 | 129 | 1.7 | 2.6 | 0.00 | 0.00 | 0.00 | 55 | 1022.4 |
| 20260502062624 | 60 | 162 | 0.9 | 2.6 | 0.00 | 0.00 | 0.00 | 56 | 1022.4 |
| 20260502061624 | 58 | 102 | 2.6 | 3.5 | 0.00 | 0.00 | 0.00 | 59 | 1022.2 |
| 20260502060621 | 57 | 104 | 1.7 | 3.5 | 0.00 | 0.00 | 0.00 | 62 | 1022.4 |
| 20260502055621 | 54 | 111 | 3.5 | 6.1 | 0.00 | 0.00 | 0.00 | 69 | 1022.3 |
| 20260502054621 | 52 | 95 | 1.7 | 3.5 | 0.00 | 0.00 | 0.00 | 72 | 1022.3 |
| 20260502053621 | 51 | 89 | 4.3 | 7.8 | 0.00 | 0.00 | 0.00 | 74 | 1022.3 |
| 20260502052621 | 50 | 93 | 3.5 | 6.1 | 0.00 | 0.00 | 0.00 | 76 | 1022.0 |
| 20260502051618 | 50 | 100 | 2.6 | 2.6 | 0.00 | 0.00 | 0.00 | 75 | 1022.0 |
| 20260502050618 | 49 | 120 | 3.5 | 4.3 | 0.00 | 0.00 | 0.00 | 77 | 1022.0 |
| 20260502045617 | 48 | 89 | 2.6 | 4.3 | 0.00 | 0.00 | 0.00 | 76 | 1021.9 |
| 20260502044618 | 47 | 91 | 3.5 | 4.3 | 0.00 | 0.00 | 0.00 | 78 | 1022.1 |
| 20260502043618 | 46 | 95 | 2.6 | 4.3 | 0.00 | 0.00 | 0.00 | 79 | 1021.9 |
| 20260502042614 | 48 | 94 | 3.5 | 6.1 | 0.00 | 0.00 | 0.00 | 75 | 1022.0 |
| 20260502041615 | 47 | 126 | 4.3 | 5.2 | 0.00 | 0.00 | 0.00 | 76 | 1021.8 |
| 20260502040615 | 48 | 97 | 2.6 | 3.5 | 0.00 | 0.00 | 0.00 | 75 | 1021.8 |
| 20260502035615 | 48 | 111 | 3.5 | 6.1 | 0.00 | 0.00 | 0.00 | 74 | 1022.0 |
| 20260502034615 | 48 | 114 | 1.7 | 5.2 | 0.00 | 0.00 | 0.00 | 72 | 1022.0 |
| 20260502033612 | 48 | 96 | 4.3 | 6.1 | 0.00 | 0.00 | 0.00 | 74 | 1021.9 |
| 20260502032612 | 48 | 91 | 2.6 | 3.5 | 0.00 | 0.00 | 0.00 | 73 | 1022.0 |
| 20260502031613 | 47 | 136 | 3.5 | 4.3 | 0.00 | 0.00 | 0.00 | 74 | 1022.0 |
| 20260502030612 | 47 | 99 | 1.7 | 5.2 | 0.00 | 0.00 | 0.00 | 75 | 1021.8 |
| 20260502025614 | 47 | 107 | 3.5 | 5.2 | 0.00 | 0.00 | 0.00 | 75 | 1021.9 |
| 20260502024609 | 47 | 99 | 2.6 | 4.3 | 0.00 | 0.00 | 0.00 | 74 | 1021.7 |
| 20260502023610 | 47 | 97 | 2.6 | 4.3 | 0.00 | 0.00 | 0.00 | 74 | 1022.0 |
| 20260502022609 | 47 | 103 | 2.6 | 3.5 | 0.00 | 0.00 | 0.00 | 73 | 1022.0 |
| 20260502021609 | 46 | 98 | 3.5 | 4.3 | 0.00 | 0.00 | 0.00 | 75 | 1021.9 |
| 20260502020609 | 47 | 99 | 3.5 | 3.5 | 0.00 | 0.00 | 0.00 | 73 | 1021.9 |
| 20260502015606 | 47 | 101 | 3.5 | 4.3 | 0.00 | 0.00 | 0.00 | 72 | 1022.1 |
| 20260502014606 | 47 | 96 | 3.5 | 5.2 | 0.00 | 0.00 | 0.00 | 71 | 1022.2 |
| 20260502013607 | 47 | 97 | 3.5 | 3.5 | 0.00 | 0.00 | 0.00 | 71 | 1022.0 |
| 20260502012606 | 46 | 101 | 4.3 | 4.3 | 0.00 | 0.00 | 0.00 | 72 | 1022.1 |
| 20260502011606 | 46 | 96 | 4.3 | 5.2 | 0.00 | 0.00 | 0.00 | 70 | 1022.1 |
| 20260502010604 | 46 | 96 | 3.5 | 5.2 | 0.00 | 0.00 | 0.00 | 70 | 1022.0 |
| 20260502005603 | 47 | 98 | 3.5 | 6.1 | 0.00 | 0.00 | 0.00 | 68 | 1022.1 |
| 20260502004604 | 47 | 92 | 2.6 | 5.2 | 0.00 | 0.00 | 0.00 | 67 | 1022.1 |
| 20260502003603 | 48 | 100 | 3.5 | 4.3 | 0.00 | 0.00 | 0.00 | 66 | 1022.2 |
| 20260502002603 | 49 | 98 | 3.5 | 3.5 | 0.00 | 0.00 | 0.00 | 65 | 1022.1 |
| 20260502001600 | 50 | 92 | 2.6 | 3.5 | 0.00 | 0.00 | 0.00 | 62 | 1022.2 |
| 20260502000600 | 50 | 95 | 2.6 | 3.5 | 0.00 | 0.00 | 0.00 | 60 | 1022.2 |
| 20260501235559 | 49 | 98 | 4.3 | 5.2 | 0.00 | 0.00 | 0.00 | 62 | 1022.2 |
| 20260501234559 | 48 | 96 | 3.5 | 5.2 | 0.00 | 0.00 | 0.00 | 66 | 1022.2 |
| 20260501233559 | 48 | 102 | 3.5 | 3.5 | 0.00 | 0.00 | 0.00 | 66 | 1022.1 |
| 20260501232557 | 47 | 94 | 3.5 | 4.3 | 0.00 | 0.00 | 0.00 | 67 | 1022.3 |
| 20260501231557 | 47 | 100 | 4.3 | 5.2 | 0.00 | 0.00 | 0.00 | 68 | 1022.4 |
| 20260501230557 | 47 | 99 | 4.3 | 5.2 | 0.00 | 0.00 | 0.00 | 67 | 1022.2 |
| 20260501225557 | 48 | 98 | 4.3 | 5.2 | 0.00 | 0.00 | 0.00 | 64 | 1022.1 |
| 20260501224558 | 48 | 93 | 3.5 | 5.2 | 0.00 | 0.00 | 0.00 | 64 | 1022.1 |
| 20260501223554 | 50 | 96 | 3.5 | 5.2 | 0.00 | 0.00 | 0.00 | 61 | 1022.3 |
| 20260501222553 | 50 | 95 | 3.5 | 4.3 | 0.00 | 0.00 | 0.00 | 60 | 1022.4 |
| 20260501221553 | 51 | 102 | 3.5 | 4.3 | 0.00 | 0.00 | 0.00 | 59 | 1022.2 |
| 20260501220554 | 52 | 94 | 2.6 | 4.3 | 0.00 | 0.00 | 0.00 | 54 | 1022.3 |
| 20260501215554 | 53 | 89 | 2.6 | 4.3 | 0.00 | 0.00 | 0.00 | 52 | 1022.3 |
| 20260501214550 | 52 | 98 | 3.5 | 4.3 | 0.00 | 0.00 | 0.00 | 56 | 1022.3 |